Time;durP1;ratioP1;P1;durP2;ratioP2;P2;SDS_P1;SDS_P2;PMS_P1;PMS_P2;Temp;Humidity;BMP_temperature;BMP_pressure;BME280_temperature;BME280_humidity;BME280_pressure;Samples;Min_cycle;Max_cycle;Signal;HPM_P1;HPM_P2
2021/03/07 00:00:09;;;;;;;1.70;1.60;;;0.50;97.10;;;;;;5009488;28;20497;-75
2021/03/07 00:02:35;;;;;;;1.70;1.60;;;0.50;96.80;;;;;;5005245;28;20917;-76
2021/03/07 00:05:01;;;;;;;1.70;1.60;;;0.50;97.10;;;;;;5010910;28;20497;-75
2021/03/07 00:07:29;;;;;;;1.90;1.80;;;0.50;97.20;;;;;;5020447;28;20552;-75
2021/03/07 00:09:55;;;;;;;1.80;1.70;;;0.40;97.50;;;;;;5018231;28;20467;-75
2021/03/07 00:12:21;;;;;;;1.90;1.80;;;0.40;97.90;;;;;;5017255;28;20486;-74
2021/03/07 00:14:47;;;;;;;1.90;1.80;;;0.40;98.10;;;;;;5028342;28;20466;-74
2021/03/07 00:17:14;;;;;;;1.80;1.70;;;0.30;97.80;;;;;;5017445;28;20482;-75
2021/03/07 00:19:41;;;;;;;1.80;1.70;;;0.30;98.00;;;;;;5024275;28;20530;-73
2021/03/07 00:22:07;;;;;;;1.80;1.70;;;0.30;98.00;;;;;;5021040;28;20489;-74
2021/03/07 00:24:34;;;;;;;1.80;1.70;;;0.30;97.90;;;;;;5021698;28;20502;-75
2021/03/07 00:27:01;;;;;;;1.70;1.60;;;0.30;97.50;;;;;;5028839;28;20646;-75
2021/03/07 00:29:28;;;;;;;1.70;1.60;;;0.20;97.00;;;;;;5035378;28;21818;-76
2021/03/07 00:31:54;;;;;;;1.80;1.70;;;0.20;96.50;;;;;;5027214;28;20494;-74
2021/03/07 00:34:21;;;;;;;1.70;1.60;;;0.20;96.50;;;;;;5023708;28;21204;-75
2021/03/07 00:36:47;;;;;;;1.80;1.70;;;0.10;96.00;;;;;;5017224;28;20482;-74
2021/03/07 00:39:14;;;;;;;1.80;1.70;;;0.10;96.20;;;;;;5039137;28;20489;-76
2021/03/07 00:41:42;;;;;;;1.80;1.70;;;0.10;96.30;;;;;;5015456;28;20920;-75
2021/03/07 00:44:10;;;;;;;1.93;1.83;;;0.10;97.10;;;;;;5032888;28;20494;-75
2021/03/07 00:46:38;;;;;;;1.80;1.70;;;0.00;97.10;;;;;;5019639;28;20496;-75
2021/03/07 00:49:05;;;;;;;1.70;1.60;;;0.00;97.70;;;;;;5017210;28;20549;-73
2021/03/07 00:51:31;;;;;;;2.00;1.90;;;0.00;97.60;;;;;;5021850;28;20481;-73
2021/03/07 00:53:57;;;;;;;2.00;1.90;;;0.00;97.20;;;;;;5018680;28;20666;-76
2021/03/07 00:56:24;;;;;;;1.80;1.70;;;0.00;98.00;;;;;;5015286;28;20471;-77
2021/03/07 00:58:51;;;;;;;1.83;1.73;;;0.00;97.30;;;;;;5024871;28;20460;-74
2021/03/07 01:01:18;;;;;;;1.70;1.60;;;-0.10;97.80;;;;;;5013792;28;20532;-77
2021/03/07 01:03:44;;;;;;;1.80;1.70;;;-0.10;97.80;;;;;;5022482;28;20482;-74
2021/03/07 01:06:11;;;;;;;2.20;2.00;;;-0.10;98.20;;;;;;5022776;28;20485;-76
2021/03/07 01:08:37;;;;;;;1.80;1.70;;;-0.10;98.20;;;;;;5023964;28;20507;-77
2021/03/07 01:11:04;;;;;;;1.77;1.67;;;-0.10;98.20;;;;;;5013103;28;21381;-74
2021/03/07 01:13:31;;;;;;;1.83;1.73;;;-0.10;98.20;;;;;;5024225;28;21579;-76
2021/03/07 01:15:58;;;;;;;1.80;1.70;;;-0.10;98.20;;;;;;5009038;28;20471;-76
2021/03/07 01:18:24;;;;;;;1.80;1.70;;;-0.10;98.20;;;;;;5030383;28;20459;-74
2021/03/07 01:20:51;;;;;;;1.80;1.70;;;-0.20;98.20;;;;;;5013129;28;21126;-74
2021/03/07 01:23:19;;;;;;;1.80;1.70;;;-0.20;98.20;;;;;;5031779;28;20487;-76
2021/03/07 01:25:45;;;;;;;1.80;1.70;;;-0.20;98.20;;;;;;5025288;28;20478;-74
2021/03/07 01:28:12;;;;;;;1.73;1.63;;;-0.20;98.20;;;;;;5033416;28;20561;-75
2021/03/07 01:30:40;;;;;;;1.80;1.70;;;-0.20;98.20;;;;;;5032536;28;20658;-75
2021/03/07 01:33:07;;;;;;;1.80;1.70;;;-0.20;98.20;;;;;;5028978;28;20497;-74
2021/03/07 01:35:34;;;;;;;2.07;1.97;;;-0.20;98.20;;;;;;5017862;28;20471;-75
2021/03/07 01:38:01;;;;;;;1.90;1.80;;;-0.20;98.20;;;;;;5020288;28;20502;-77
2021/03/07 01:40:30;;;;;;;1.87;1.77;;;-0.30;98.20;;;;;;5013946;28;20485;-76
2021/03/07 01:42:58;;;;;;;1.80;1.70;;;-0.30;98.20;;;;;;5025398;28;20543;-77
2021/03/07 01:45:27;;;;;;;1.80;1.70;;;-0.30;98.20;;;;;;5025001;28;20463;-76
2021/03/07 01:47:56;;;;;;;1.80;1.70;;;-0.30;98.20;;;;;;5019898;28;20487;-76
2021/03/07 01:50:26;;;;;;;1.80;1.70;;;-0.30;98.20;;;;;;5018889;28;20477;-76
2021/03/07 01:52:53;;;;;;;1.70;1.60;;;-0.40;98.20;;;;;;5008615;28;20484;-76
2021/03/07 01:55:24;;;;;;;1.80;1.70;;;-0.40;98.20;;;;;;5017022;28;20586;-74
2021/03/07 01:57:58;;;;;;;2.00;1.90;;;-0.40;98.20;;;;;;5026133;28;20593;-76
2021/03/07 02:00:25;;;;;;;1.80;1.70;;;-0.50;98.20;;;;;;5019078;28;20715;-77
2021/03/07 02:02:52;;;;;;;1.80;1.70;;;-0.50;98.20;;;;;;5022354;28;20512;-75
2021/03/07 02:05:20;;;;;;;1.90;1.80;;;-0.50;98.20;;;;;;5018329;28;20538;-74
2021/03/07 02:07:47;;;;;;;1.87;1.77;;;-0.50;98.20;;;;;;5028659;28;20581;-75
2021/03/07 02:10:18;;;;;;;1.90;1.80;;;-0.50;98.20;;;;;;5013770;28;20497;-76
2021/03/07 02:12:45;;;;;;;1.87;1.77;;;-0.50;98.20;;;;;;5015726;28;20577;-75
2021/03/07 02:15:13;;;;;;;2.00;1.90;;;-0.50;98.20;;;;;;5015081;28;20503;-76
2021/03/07 02:17:41;;;;;;;1.90;1.80;;;-0.60;98.20;;;;;;5017786;28;20527;-76
2021/03/07 02:20:10;;;;;;;1.80;1.70;;;-0.60;98.20;;;;;;5018706;28;20521;-75
2021/03/07 02:22:40;;;;;;;1.80;1.70;;;-0.60;98.20;;;;;;5025514;28;20497;-76
2021/03/07 02:25:11;;;;;;;1.70;1.60;;;-0.60;98.20;;;;;;5013779;28;20491;-75
2021/03/07 02:27:37;;;;;;;2.00;1.90;;;-0.60;98.20;;;;;;5022349;28;20482;-75
2021/03/07 02:30:05;;;;;;;1.70;1.60;;;-0.60;98.20;;;;;;5015201;28;20546;-75
2021/03/07 02:32:34;;;;;;;1.90;1.80;;;-0.60;98.20;;;;;;5021596;28;20490;-74
2021/03/07 02:35:06;;;;;;;1.83;1.73;;;-0.70;98.20;;;;;;5020140;28;20463;-75
2021/03/07 02:37:33;;;;;;;1.80;1.70;;;-0.70;98.20;;;;;;4990141;28;20483;-76
2021/03/07 02:40:01;;;;;;;1.80;1.70;;;-0.70;98.20;;;;;;5009840;28;20997;-76
2021/03/07 02:42:31;;;;;;;1.70;1.60;;;-0.70;98.20;;;;;;5012376;28;20482;-76
2021/03/07 02:45:01;;;;;;;1.80;1.70;;;-0.70;98.20;;;;;;5017008;28;20487;-75
2021/03/07 02:47:32;;;;;;;1.80;1.70;;;-0.80;98.20;;;;;;5020109;28;20568;-76
2021/03/07 02:50:01;;;;;;;1.70;1.60;;;-0.80;98.20;;;;;;5017603;28;21038;-75
2021/03/07 02:52:28;;;;;;;1.90;1.80;;;-0.80;98.20;;;;;;5015333;28;20478;-73
2021/03/07 02:54:57;;;;;;;1.80;1.70;;;-0.80;98.20;;;;;;5014531;28;20554;-74
2021/03/07 02:57:26;;;;;;;1.80;1.70;;;-0.80;98.20;;;;;;5015369;28;20482;-75
2021/03/07 02:59:57;;;;;;;1.90;1.80;;;-0.80;98.20;;;;;;5016220;28;21045;-76
2021/03/07 03:02:29;;;;;;;1.83;1.73;;;-0.80;98.20;;;;;;5016004;28;20477;-75
2021/03/07 03:04:56;;;;;;;1.80;1.70;;;-0.80;98.20;;;;;;5018134;28;20499;-75
2021/03/07 03:07:24;;;;;;;1.97;1.87;;;-0.80;98.20;;;;;;5012349;28;20529;-74
2021/03/07 03:09:53;;;;;;;1.90;1.80;;;-0.90;98.20;;;;;;5023289;28;20477;-75
2021/03/07 03:12:20;;;;;;;2.10;2.00;;;-0.90;98.20;;;;;;5015257;28;20490;-77
2021/03/07 03:14:47;;;;;;;1.90;1.80;;;-0.90;98.20;;;;;;5018806;28;20491;-75
2021/03/07 03:17:16;;;;;;;1.90;1.80;;;-0.90;98.20;;;;;;5019298;28;20561;-75
2021/03/07 03:19:45;;;;;;;1.80;1.70;;;-0.90;98.20;;;;;;5018624;28;20475;-75
2021/03/07 03:22:11;;;;;;;1.90;1.80;;;-1.00;98.20;;;;;;5018479;28;20482;-76
2021/03/07 03:24:38;;;;;;;1.80;1.70;;;-1.00;98.20;;;;;;5024109;28;20490;-77
2021/03/07 03:27:06;;;;;;;1.93;1.83;;;-1.00;98.20;;;;;;5017202;28;20491;-74
2021/03/07 03:29:33;;;;;;;2.00;1.90;;;-1.10;98.20;;;;;;5021529;28;20471;-75
2021/03/07 03:32:00;;;;;;;1.80;1.70;;;-1.10;98.20;;;;;;5016240;28;20487;-77
2021/03/07 03:34:27;;;;;;;1.80;1.70;;;-1.10;98.20;;;;;;5021424;28;20578;-74
2021/03/07 03:36:54;;;;;;;1.90;1.80;;;-1.10;98.20;;;;;;5016195;28;20490;-76
2021/03/07 03:39:22;;;;;;;1.80;1.70;;;-1.10;98.20;;;;;;5021607;28;20467;-76
2021/03/07 03:41:52;;;;;;;1.80;1.70;;;-1.10;98.20;;;;;;5019991;28;20498;-74
2021/03/07 03:44:21;;;;;;;2.00;1.90;;;-1.10;98.20;;;;;;5015369;28;20506;-74
2021/03/07 03:46:51;;;;;;;1.87;1.77;;;-1.20;98.20;;;;;;5009382;28;20991;-77
2021/03/07 03:49:23;;;;;;;1.90;1.80;;;-1.20;98.20;;;;;;5012662;28;20498;-76
2021/03/07 03:51:56;;;;;;;1.90;1.80;;;-1.20;98.20;;;;;;5021440;28;20481;-77
2021/03/07 03:54:23;;;;;;;1.70;1.60;;;-1.20;98.20;;;;;;5031900;28;21002;-77
2021/03/07 03:56:50;;;;;;;2.00;1.90;;;-1.30;98.20;;;;;;5010737;28;20486;-78
2021/03/07 03:59:18;;;;;;;1.90;1.80;;;-1.30;98.20;;;;;;5029740;28;20897;-77
2021/03/07 04:01:46;;;;;;;1.80;1.70;;;-1.30;98.20;;;;;;5015267;28;20479;-77
2021/03/07 04:04:14;;;;;;;1.90;1.80;;;-1.30;98.20;;;;;;5016419;28;20498;-77
2021/03/07 04:06:41;;;;;;;2.03;1.93;;;-1.30;98.20;;;;;;5003181;28;20558;-77
2021/03/07 04:09:10;;;;;;;1.80;1.70;;;-1.30;98.20;;;;;;5025113;28;20471;-74
2021/03/07 04:11:37;;;;;;;2.17;2.07;;;-1.30;98.20;;;;;;5017048;28;20486;-74
2021/03/07 04:14:04;;;;;;;1.80;1.70;;;-1.30;98.20;;;;;;5021076;28;20473;-75
2021/03/07 04:16:31;;;;;;;1.80;1.70;;;-1.30;98.20;;;;;;5009674;28;20475;-75
2021/03/07 04:18:58;;;;;;;1.90;1.80;;;-1.30;98.20;;;;;;5021391;28;20467;-75
2021/03/07 04:21:26;;;;;;;1.93;1.83;;;-1.40;98.20;;;;;;5016625;28;20533;-74
2021/03/07 04:23:52;;;;;;;1.80;1.70;;;-1.40;98.20;;;;;;5030502;28;20487;-75
2021/03/07 04:26:20;;;;;;;1.90;1.80;;;-1.40;98.20;;;;;;5012883;28;20509;-75
2021/03/07 04:28:47;;;;;;;1.93;1.83;;;-1.40;98.20;;;;;;5030453;28;20468;-74
2021/03/07 04:31:14;;;;;;;1.90;1.80;;;-1.40;98.20;;;;;;5008544;28;20515;-76
2021/03/07 04:33:42;;;;;;;1.90;1.80;;;-1.40;98.20;;;;;;5028165;28;20459;-76
2021/03/07 04:36:09;;;;;;;1.90;1.80;;;-1.40;98.20;;;;;;5012774;28;20564;-74
2021/03/07 04:38:36;;;;;;;1.90;1.80;;;-1.40;98.20;;;;;;5019263;28;20966;-75
2021/03/07 04:41:03;;;;;;;1.87;1.77;;;-1.40;98.20;;;;;;5010560;28;21110;-74
2021/03/07 04:43:42;;;;;;;1.80;1.70;;;-1.40;98.20;;;;;;5028687;28;21409;-77
2021/03/07 04:46:08;;;;;;;3.70;3.50;;;-1.40;98.20;;;;;;5014289;28;20507;-79
2021/03/07 04:48:35;;;;;;;1.80;1.70;;;-1.50;98.20;;;;;;5036117;28;20467;-78
2021/03/07 04:51:01;;;;;;;1.90;1.80;;;-1.50;98.20;;;;;;5005406;28;20537;-78
2021/03/07 04:53:27;;;;;;;2.03;1.93;;;-1.40;98.20;;;;;;5010848;28;20583;-78
2021/03/07 04:55:54;;;;;;;1.90;1.80;;;-1.50;98.20;;;;;;5011849;28;20467;-78
2021/03/07 04:58:20;;;;;;;1.90;1.80;;;-1.50;98.20;;;;;;5034178;28;21068;-78
2021/03/07 05:00:47;;;;;;;1.80;1.70;;;-1.50;98.20;;;;;;5020653;28;20486;-78
2021/03/07 05:03:14;;;;;;;1.87;1.77;;;-1.50;98.20;;;;;;5035876;28;21049;-78
2021/03/07 05:05:41;;;;;;;1.90;1.80;;;-1.50;98.20;;;;;;5016684;28;20546;-78
2021/03/07 05:08:07;;;;;;;1.90;1.80;;;-1.50;98.20;;;;;;5020640;28;20578;-78
2021/03/07 05:10:34;;;;;;;1.90;1.80;;;-1.60;98.20;;;;;;5015333;28;20462;-76
2021/03/07 05:13:00;;;;;;;2.17;2.07;;;-1.60;98.20;;;;;;5018894;28;20538;-76
2021/03/07 05:15:27;;;;;;;1.90;1.80;;;-1.60;98.20;;;;;;5019358;28;20479;-77
2021/03/07 05:17:54;;;;;;;1.80;1.70;;;-1.60;98.20;;;;;;5023528;28;21123;-77
2021/03/07 05:20:20;;;;;;;1.90;1.80;;;-1.70;98.20;;;;;;5021405;28;21355;-77
2021/03/07 05:22:47;;;;;;;1.97;1.87;;;-1.70;98.20;;;;;;5028598;28;20892;-80
2021/03/07 05:25:14;;;;;;;1.90;1.80;;;-1.70;98.20;;;;;;5018376;28;20487;-78
2021/03/07 05:27:40;;;;;;;2.53;2.37;;;-1.80;98.20;;;;;;5019377;28;20486;-76
2021/03/07 05:30:07;;;;;;;1.80;1.70;;;-1.80;98.20;;;;;;5025076;28;20615;-77
2021/03/07 05:32:34;;;;;;;2.17;2.07;;;-1.80;98.20;;;;;;5019517;28;20491;-78
2021/03/07 05:35:01;;;;;;;1.80;1.70;;;-1.80;98.20;;;;;;5017238;28;21227;-76
2021/03/07 05:37:27;;;;;;;1.90;1.80;;;-1.80;98.20;;;;;;5014973;28;21962;-76
2021/03/07 05:39:54;;;;;;;1.90;1.80;;;-1.80;98.20;;;;;;5021171;28;20467;-76
2021/03/07 05:42:20;;;;;;;1.90;1.80;;;-1.80;98.20;;;;;;5022527;28;20569;-76
2021/03/07 05:44:47;;;;;;;1.93;1.83;;;-1.80;98.20;;;;;;5018713;28;20514;-77
2021/03/07 05:47:15;;;;;;;1.90;1.80;;;-1.80;98.20;;;;;;5017189;28;21525;-77
2021/03/07 05:49:42;;;;;;;1.80;1.70;;;-1.80;98.20;;;;;;5026293;28;20841;-77
2021/03/07 05:52:10;;;;;;;1.90;1.80;;;-1.90;98.20;;;;;;5012028;28;20487;-76
2021/03/07 05:54:37;;;;;;;1.87;1.77;;;-1.90;98.20;;;;;;5017411;28;20962;-76
2021/03/07 05:57:05;;;;;;;1.90;1.80;;;-1.90;98.20;;;;;;5008840;28;20498;-76
2021/03/07 05:59:34;;;;;;;1.90;1.80;;;-1.90;98.20;;;;;;5010881;28;20471;-77
2021/03/07 06:02:01;;;;;;;1.90;1.80;;;-1.90;98.20;;;;;;5015184;28;20482;-75
2021/03/07 06:04:28;;;;;;;1.93;1.83;;;-1.90;98.20;;;;;;5018626;28;20491;-75
2021/03/07 06:06:54;;;;;;;1.80;1.70;;;-1.90;98.20;;;;;;5017615;28;20482;-75
2021/03/07 06:09:27;;;;;;;1.80;1.70;;;-1.90;98.20;;;;;;5022522;28;20505;-75
2021/03/07 06:11:54;;;;;;;1.90;1.80;;;-1.90;98.20;;;;;;5018540;28;20503;-74
2021/03/07 06:14:23;;;;;;;1.90;1.80;;;-1.90;98.20;;;;;;5020666;28;20463;-75
2021/03/07 06:17:05;;;;;;;1.90;1.80;;;-2.00;98.20;;;;;;5016615;28;20497;-76
2021/03/07 06:19:47;;;;;;;2.03;1.93;;;-2.00;98.20;;;;;;5020321;28;20463;-74
2021/03/07 06:22:14;;;;;;;1.90;1.80;;;-2.00;98.20;;;;;;5017912;28;20478;-75
2021/03/07 06:24:41;;;;;;;1.90;1.80;;;-2.00;98.20;;;;;;5012831;28;20491;-72
2021/03/07 06:27:09;;;;;;;1.90;1.80;;;-2.00;98.20;;;;;;5015036;28;20573;-73
2021/03/07 06:29:38;;;;;;;1.90;1.80;;;-2.00;98.20;;;;;;5023217;28;20463;-75
2021/03/07 06:32:17;;;;;;;1.90;1.80;;;-2.00;98.20;;;;;;5020064;28;20494;-73
2021/03/07 06:34:45;;;;;;;1.90;1.80;;;-2.00;98.20;;;;;;5018498;28;20458;-74
2021/03/07 06:37:11;;;;;;;2.00;1.90;;;-1.90;98.20;;;;;;5018238;28;20553;-75
2021/03/07 06:39:37;;;;;;;1.90;1.80;;;-1.90;98.20;;;;;;5014790;28;20974;-75
2021/03/07 06:42:06;;;;;;;2.00;1.90;;;-1.90;98.20;;;;;;5017225;28;20567;-74
2021/03/07 06:44:34;;;;;;;1.90;1.80;;;-1.90;98.20;;;;;;5021050;28;20594;-73
2021/03/07 06:47:10;;;;;;;2.10;2.00;;;-1.80;98.20;;;;;;5012477;28;20484;-73
2021/03/07 06:49:37;;;;;;;2.03;1.93;;;-1.70;98.20;;;;;;5011463;28;20546;-75
2021/03/07 06:52:14;;;;;;;2.17;2.07;;;-1.60;98.20;;;;;;5018710;28;20489;-73
2021/03/07 06:54:43;;;;;;;1.90;1.80;;;-1.50;98.20;;;;;;5011971;28;21014;-72
2021/03/07 06:57:10;;;;;;;1.90;1.80;;;-1.30;98.20;;;;;;5010939;28;20534;-74
2021/03/07 06:59:37;;;;;;;10.17;9.60;;;-1.10;98.20;;;;;;5019583;28;20464;-76
2021/03/07 07:02:11;;;;;;;2.00;1.90;;;-1.00;98.20;;;;;;5015641;28;21017;-74
2021/03/07 07:04:43;;;;;;;1.90;1.80;;;-0.80;98.20;;;;;;5012747;28;20516;-74
2021/03/07 07:07:12;;;;;;;1.90;1.80;;;-0.60;98.20;;;;;;5021195;28;20514;-75
2021/03/07 07:09:39;;;;;;;1.90;1.80;;;-0.40;98.20;;;;;;5018714;28;20472;-73
2021/03/07 07:12:07;;;;;;;1.80;1.70;;;-0.20;98.20;;;;;;5021698;28;20570;-74
2021/03/07 07:14:40;;;;;;;1.70;1.60;;;0.00;98.20;;;;;;5015724;28;20456;-75
2021/03/07 07:17:08;;;;;;;1.80;1.70;;;0.20;98.20;;;;;;5020808;28;20517;-74
2021/03/07 07:19:35;;;;;;;1.70;1.60;;;0.40;98.20;;;;;;5021023;28;20493;-76
2021/03/07 07:22:04;;;;;;;1.87;1.77;;;0.60;98.20;;;;;;5020124;28;20519;-77
2021/03/07 07:24:30;;;;;;;1.83;1.73;;;0.80;98.20;;;;;;5022672;28;20553;-76
2021/03/07 07:26:57;;;;;;;1.90;1.80;;;1.00;98.20;;;;;;5011330;28;20503;-76
2021/03/07 07:29:24;;;;;;;1.90;1.80;;;1.10;98.20;;;;;;5015001;28;20547;-76
2021/03/07 07:31:57;;;;;;;1.80;1.70;;;1.30;98.20;;;;;;5021011;28;20482;-76
2021/03/07 07:34:29;;;;;;;1.73;1.63;;;1.50;98.20;;;;;;5027757;28;20574;-76
2021/03/07 07:37:00;;;;;;;1.73;1.63;;;1.60;97.70;;;;;;5021659;28;20478;-77
2021/03/07 07:39:30;;;;;;;1.67;1.50;;;1.80;97.50;;;;;;5021207;28;20491;-75
2021/03/07 07:41:57;;;;;;;1.70;1.60;;;1.90;97.20;;;;;;5021609;28;20500;-75
2021/03/07 07:44:30;;;;;;;1.70;1.60;;;2.10;96.70;;;;;;5023583;28;20518;-76
2021/03/07 07:47:00;;;;;;;1.70;1.60;;;2.20;96.70;;;;;;5023547;28;21003;-75
2021/03/07 07:49:40;;;;;;;1.70;1.60;;;2.40;95.70;;;;;;5025561;28;20531;-77
2021/03/07 07:52:38;;;;;;;1.70;1.60;;;2.60;94.90;;;;;;5018992;28;20759;-77
2021/03/07 07:55:08;;;;;;;1.77;1.67;;;2.80;94.30;;;;;;5008857;28;20468;-75
2021/03/07 07:57:48;;;;;;;1.73;1.63;;;2.90;94.10;;;;;;5027897;28;20569;-77
2021/03/07 08:00:26;;;;;;;1.63;1.50;;;3.10;93.30;;;;;;5018619;28;20470;-76
2021/03/07 08:02:58;;;;;;;1.70;1.60;;;3.30;92.20;;;;;;5022797;28;21066;-77
2021/03/07 08:05:51;;;;;;;1.67;1.50;;;3.40;90.70;;;;;;5022898;28;20541;-78
2021/03/07 08:08:33;;;;;;;1.63;1.50;;;3.40;90.50;;;;;;4956165;28;20483;-78
2021/03/07 08:11:00;;;;;;;1.80;1.70;;;3.50;89.20;;;;;;5025518;28;20482;-77
2021/03/07 08:13:50;;;;;;;1.70;1.60;;;3.50;88.20;;;;;;5046751;28;20474;-78
2021/03/07 08:16:36;;;;;;;1.63;1.40;;;3.60;88.50;;;;;;5016069;28;20518;-77
2021/03/07 08:19:05;;;;;;;1.63;1.50;;;3.70;88.20;;;;;;5014589;28;20466;-78
2021/03/07 08:21:56;;;;;;;1.63;1.50;;;3.90;87.90;;;;;;5022657;28;20640;-77
2021/03/07 08:24:23;;;;;;;1.60;1.40;;;4.20;87.70;;;;;;5026638;28;20872;-78
2021/03/07 08:27:00;;;;;;;1.60;1.40;;;4.30;87.20;;;;;;5015025;28;20483;-78
2021/03/07 08:29:44;;;;;;;1.60;1.40;;;4.40;86.50;;;;;;5019172;28;20464;-78
2021/03/07 08:32:37;;;;;;;1.60;1.40;;;4.40;85.50;;;;;;5018548;28;20581;-78
2021/03/07 08:35:12;;;;;;;1.70;1.50;;;4.50;86.00;;;;;;5023699;28;20463;-77
2021/03/07 08:37:39;;;;;;;1.60;1.30;;;4.60;86.10;;;;;;5026598;28;20501;-78
2021/03/07 08:40:34;;;;;;;1.70;1.53;;;4.70;85.30;;;;;;5023270;28;20467;-78
2021/03/07 08:43:34;;;;;;;1.77;1.67;;;4.90;84.80;;;;;;4985043;28;20541;-78
2021/03/07 08:46:02;;;;;;;1.80;1.60;;;5.10;84.30;;;;;;5015591;28;20485;-78
2021/03/07 08:48:28;;;;;;;1.70;1.50;;;5.20;84.90;;;;;;5029103;28;21192;-78
2021/03/07 08:50:56;;;;;;;1.67;1.47;;;5.40;84.80;;;;;;5009802;28;20561;-76
2021/03/07 08:53:24;;;;;;;1.60;1.30;;;5.50;84.70;;;;;;5036296;28;20467;-78
2021/03/07 08:55:50;;;;;;;1.60;1.50;;;5.60;85.30;;;;;;5017637;28;20463;-75
2021/03/07 08:58:17;;;;;;;1.60;1.30;;;5.70;84.40;;;;;;5033364;28;20994;-75
2021/03/07 09:00:45;;;;;;;1.60;1.30;;;5.80;84.40;;;;;;5019969;28;20468;-76
2021/03/07 09:03:13;;;;;;;1.60;1.37;;;5.90;84.30;;;;;;4998784;28;20626;-77
2021/03/07 09:05:39;;;;;;;1.60;1.40;;;6.00;84.80;;;;;;5022119;28;20580;-78
2021/03/07 09:08:07;;;;;;;1.60;1.40;;;6.20;84.70;;;;;;5031804;28;20528;-77
2021/03/07 09:10:36;;;;;;;1.60;1.30;;;6.30;83.80;;;;;;5023933;28;20551;-76
2021/03/07 09:13:14;;;;;;;1.60;1.30;;;6.40;84.10;;;;;;5030843;28;20481;-77
2021/03/07 09:15:50;;;;;;;1.60;1.30;;;6.50;83.50;;;;;;5023710;28;20465;-77
2021/03/07 09:18:17;;;;;;;1.60;1.30;;;6.60;83.90;;;;;;5004559;28;20484;-77
2021/03/07 09:20:47;;;;;;;1.60;1.20;;;6.70;85.60;;;;;;5026962;28;21023;-76
2021/03/07 09:23:45;;;;;;;1.60;1.30;;;6.80;85.40;;;;;;5005952;28;20515;-76
2021/03/07 09:26:13;;;;;;;1.60;1.30;;;6.90;85.30;;;;;;4927343;28;20527;-76
2021/03/07 09:28:42;;;;;;;1.60;1.20;;;7.00;85.90;;;;;;5005343;28;20475;-78
2021/03/07 09:31:10;;;;;;;1.60;1.20;;;7.10;85.60;;;;;;5018079;28;20577;-76
2021/03/07 09:33:37;;;;;;;1.53;1.20;;;7.20;85.10;;;;;;5026192;28;20498;-78
2021/03/07 09:36:09;;;;;;;1.60;1.20;;;7.30;84.40;;;;;;5015139;28;20467;-77
2021/03/07 09:38:53;;;;;;;1.60;1.20;;;7.40;84.40;;;;;;5023339;28;20553;-76
2021/03/07 09:41:30;;;;;;;1.60;1.20;;;7.60;84.20;;;;;;5013697;28;20506;-77
2021/03/07 09:44:00;;;;;;;1.60;1.20;;;7.70;83.30;;;;;;5032922;28;20487;-78
2021/03/07 09:46:27;;;;;;;1.60;1.20;;;7.80;83.00;;;;;;5016179;28;20475;-77
2021/03/07 09:48:57;;;;;;;1.60;1.20;;;7.90;82.40;;;;;;5026156;28;20896;-77
2021/03/07 09:51:28;;;;;;;1.57;1.20;;;8.10;82.30;;;;;;5013024;28;20479;-77
2021/03/07 09:53:56;;;;;;;1.60;1.30;;;8.10;80.80;;;;;;5031026;28;20506;-77
2021/03/07 09:56:29;;;;;;;1.60;1.20;;;8.10;80.40;;;;;;5013972;28;20520;-77
2021/03/07 09:59:09;;;;;;;1.60;1.30;;;8.10;81.60;;;;;;5021948;28;20472;-77
2021/03/07 10:01:43;;;;;;;1.60;1.20;;;8.20;81.30;;;;;;5020265;28;20486;-76
2021/03/07 10:04:30;;;;;;;1.60;1.30;;;8.30;80.30;;;;;;5027088;28;20486;-77
2021/03/07 10:06:57;;;;;;;1.50;1.20;;;8.40;80.30;;;;;;5021822;28;20474;-76
2021/03/07 10:09:25;;;;;;;1.60;1.30;;;8.50;80.30;;;;;;5028835;28;20495;-77
2021/03/07 10:12:09;;;;;;;1.53;1.10;;;8.50;79.50;;;;;;5003295;28;20720;-77
2021/03/07 10:14:38;;;;;;;1.53;1.20;;;8.60;79.70;;;;;;5017345;28;20973;-78
2021/03/07 10:17:04;;;;;;;1.50;1.20;;;8.70;79.60;;;;;;5019277;28;20555;-78
2021/03/07 10:19:36;;;;;;;1.53;1.20;;;8.70;78.50;;;;;;5021727;28;20509;-78
2021/03/07 10:22:05;;;;;;;1.57;1.13;;;8.70;78.90;;;;;;5011186;28;20684;-77
2021/03/07 10:24:34;;;;;;;1.57;1.10;;;8.70;79.10;;;;;;5026468;28;20491;-77
2021/03/07 10:27:03;;;;;;;1.60;1.20;;;8.80;78.60;;;;;;5019835;28;20483;-76
2021/03/07 10:29:40;;;;;;;1.60;1.10;;;8.90;78.10;;;;;;5030897;28;20486;-77
2021/03/07 10:32:11;;;;;;;1.53;1.10;;;9.00;78.20;;;;;;5027216;28;20486;-77
2021/03/07 10:34:40;;;;;;;1.53;1.10;;;9.10;78.10;;;;;;5026908;28;20538;-77
2021/03/07 10:37:08;;;;;;;1.50;1.10;;;9.10;78.80;;;;;;5021224;28;20489;-77
2021/03/07 10:39:36;;;;;;;1.57;1.20;;;9.20;77.90;;;;;;5028349;28;20494;-77
2021/03/07 10:42:11;;;;;;;1.60;1.30;;;9.30;77.90;;;;;;5022037;28;20489;-78
2021/03/07 10:44:40;;;;;;;1.57;1.10;;;9.40;78.50;;;;;;5017780;28;20493;-77
2021/03/07 10:47:15;;;;;;;1.53;1.17;;;9.40;78.60;;;;;;5026487;28;20493;-76
2021/03/07 10:49:41;;;;;;;1.70;1.53;;;9.40;78.30;;;;;;5032790;28;20497;-77
2021/03/07 10:52:07;;;;;;;2.03;1.83;;;9.50;78.50;;;;;;5011917;28;20633;-76
2021/03/07 10:54:35;;;;;;;1.53;1.10;;;9.50;78.40;;;;;;5020046;28;20513;-76
2021/03/07 10:57:01;;;;;;;1.53;1.10;;;9.70;78.60;;;;;;5015359;28;20488;-77
2021/03/07 10:59:28;;;;;;;1.57;1.10;;;9.80;78.70;;;;;;5018167;28;20522;-77
2021/03/07 11:01:54;;;;;;;1.60;1.10;;;9.90;79.20;;;;;;5016569;28;20528;-76
2021/03/07 11:04:21;;;;;;;1.50;1.10;;;10.10;77.70;;;;;;5022208;28;20486;-78
2021/03/07 11:06:47;;;;;;;1.57;1.10;;;10.10;78.40;;;;;;5022015;28;20498;-76
2021/03/07 11:09:14;;;;;;;1.57;1.10;;;10.10;78.20;;;;;;5027581;28;20475;-77
2021/03/07 11:11:43;;;;;;;1.60;1.20;;;10.00;79.20;;;;;;5019009;28;20972;-76
2021/03/07 11:14:09;;;;;;;1.60;1.10;;;10.10;78.30;;;;;;5028007;28;20913;-77
2021/03/07 11:16:36;;;;;;;1.60;1.10;;;10.10;78.50;;;;;;5007686;28;20564;-77
2021/03/07 11:19:03;;;;;;;3.77;2.13;;;10.30;78.80;;;;;;5020784;28;20566;-77
2021/03/07 11:21:29;;;;;;;1.50;1.00;;;10.50;77.80;;;;;;5008182;28;20506;-75
2021/03/07 11:23:55;;;;;;;1.50;1.00;;;10.50;76.70;;;;;;5021983;28;20950;-78
2021/03/07 11:26:22;;;;;;;1.77;1.67;;;10.50;75.80;;;;;;5002940;28;20686;-76
2021/03/07 11:28:49;;;;;;;1.90;1.63;;;10.50;77.10;;;;;;5014333;28;20501;-76
2021/03/07 11:31:17;;;;;;;1.60;1.07;;;10.40;75.80;;;;;;5013471;28;20582;-77
2021/03/07 11:33:43;;;;;;;1.57;1.10;;;10.40;75.50;;;;;;5031028;28;20641;-76
2021/03/07 11:36:09;;;;;;;1.60;1.20;;;10.50;75.00;;;;;;5002002;28;20483;-76
2021/03/07 11:38:36;;;;;;;1.53;1.07;;;10.50;74.50;;;;;;5019667;28;20464;-76
2021/03/07 11:41:03;;;;;;;1.53;1.00;;;10.50;75.70;;;;;;5011365;28;20491;-78
2021/03/07 11:43:29;;;;;;;1.53;1.00;;;10.40;74.90;;;;;;5026285;28;20579;-76
2021/03/07 11:45:57;;;;;;;1.53;1.00;;;10.30;75.60;;;;;;5008710;28;20491;-77
2021/03/07 11:48:23;;;;;;;1.60;1.13;;;10.30;75.30;;;;;;5016936;28;20471;-77
2021/03/07 11:50:50;;;;;;;1.53;1.00;;;10.30;75.20;;;;;;5002985;28;20495;-77
2021/03/07 11:53:16;;;;;;;1.53;1.03;;;10.30;74.40;;;;;;5026719;28;20958;-77
2021/03/07 11:55:42;;;;;;;1.53;1.00;;;10.40;74.30;;;;;;5009232;28;20765;-77
2021/03/07 11:58:09;;;;;;;1.60;1.10;;;10.40;73.70;;;;;;5015909;28;20906;-78
2021/03/07 12:00:35;;;;;;;1.50;1.00;;;10.50;73.40;;;;;;5011634;28;20519;-76
2021/03/07 12:03:03;;;;;;;1.50;1.00;;;10.50;72.80;;;;;;5006458;28;21057;-77
2021/03/07 12:05:29;;;;;;;1.50;1.10;;;10.50;73.40;;;;;;5015288;28;21048;-76
2021/03/07 12:07:56;;;;;;;2.23;2.03;;;10.60;73.30;;;;;;5020310;28;20486;-76
2021/03/07 12:10:22;;;;;;;1.53;1.00;;;10.70;73.10;;;;;;5019063;28;20466;-76
2021/03/07 12:12:49;;;;;;;1.50;1.00;;;10.90;74.00;;;;;;5021364;28;20478;-76
2021/03/07 12:15:16;;;;;;;1.53;1.00;;;11.00;73.50;;;;;;5017458;28;20463;-75
2021/03/07 12:17:43;;;;;;;1.60;1.13;;;11.00;72.70;;;;;;5015397;28;20551;-75
2021/03/07 12:20:12;;;;;;;1.50;1.00;;;11.00;72.60;;;;;;5013502;28;20479;-76
2021/03/07 12:22:38;;;;;;;1.53;1.00;;;10.90;72.90;;;;;;5017401;28;20485;-76
2021/03/07 12:25:06;;;;;;;1.50;1.00;;;11.00;73.80;;;;;;5011404;28;20491;-75
2021/03/07 12:27:33;;;;;;;1.60;1.10;;;10.90;73.40;;;;;;5016990;28;20548;-76
2021/03/07 12:30:00;;;;;;;1.57;1.10;;;10.80;72.60;;;;;;5014533;28;20506;-75
2021/03/07 12:32:26;;;;;;;1.50;1.00;;;10.80;74.00;;;;;;5017284;28;20617;-76
2021/03/07 12:34:53;;;;;;;1.53;1.03;;;10.80;72.30;;;;;;5018662;28;20474;-76
2021/03/07 12:37:20;;;;;;;1.70;1.40;;;10.80;73.20;;;;;;5014233;28;20482;-76
2021/03/07 12:39:46;;;;;;;1.53;1.00;;;11.00;72.00;;;;;;5023811;28;20467;-76
2021/03/07 12:42:13;;;;;;;1.53;1.00;;;11.10;71.90;;;;;;5017910;28;20524;-75
2021/03/07 12:44:39;;;;;;;1.57;1.07;;;11.20;71.00;;;;;;5012616;28;20487;-76
2021/03/07 12:47:06;;;;;;;1.50;1.00;;;11.30;69.20;;;;;;5019212;28;20466;-76
2021/03/07 12:49:33;;;;;;;1.53;1.10;;;11.20;69.40;;;;;;5037014;28;21359;-76
2021/03/07 12:51:59;;;;;;;1.57;1.00;;;11.10;69.70;;;;;;5004515;28;20582;-76
2021/03/07 12:54:26;;;;;;;1.50;1.00;;;11.10;71.40;;;;;;5020212;28;21450;-76
2021/03/07 12:56:53;;;;;;;1.60;1.10;;;11.30;71.20;;;;;;5022348;28;20489;-76
2021/03/07 12:59:20;;;;;;;1.70;1.40;;;11.40;70.70;;;;;;5033878;28;20468;-77